Time;durP1;ratioP1;P1;durP2;ratioP2;P2;SDS_P1;SDS_P2;PMS_P1;PMS_P2;Temp;Humidity;BMP_temperature;BMP_pressure;BME280_temperature;BME280_humidity;BME280_pressure;Samples;Min_cycle;Max_cycle;Signal;HPM_P1;HPM_P2
2022/10/19 00:01:38;;;;;;;2.10;0.43;;;12.10;99.90;;;;;;5100912;28;20031;-46
2022/10/19 00:04:04;;;;;;;4.85;0.60;;;12.10;99.90;;;;;;5102462;28;20127;-46
2022/10/19 00:06:33;;;;;;;2.28;0.40;;;12.10;99.90;;;;;;5103794;28;20042;-43
2022/10/19 00:09:08;;;;;;;2.58;0.60;;;12.10;99.90;;;;;;5101559;28;20036;-44
2022/10/19 00:11:37;;;;;;;3.53;0.90;;;12.10;99.90;;;;;;5099951;28;20036;-43
2022/10/19 00:14:04;;;;;;;1.42;0.40;;;12.00;99.90;;;;;;5104732;28;20035;-42
2022/10/19 00:16:33;;;;;;;5.57;0.50;;;12.00;99.90;;;;;;5100262;28;20042;-43
2022/10/19 00:19:04;;;;;;;2.30;0.47;;;11.80;99.90;;;;;;5096428;28;20054;-43
2022/10/19 00:21:29;;;;;;;4.82;0.52;;;11.70;99.90;;;;;;5107112;28;20043;-44
2022/10/19 00:23:55;;;;;;;2.90;0.40;;;11.60;99.90;;;;;;5105310;28;20097;-42
2022/10/19 00:26:21;;;;;;;1.52;0.60;;;11.50;99.90;;;;;;5098587;28;20400;-43
2022/10/19 00:28:47;;;;;;;4.88;0.60;;;11.40;99.90;;;;;;5102107;28;20055;-41
2022/10/19 00:31:15;;;;;;;2.08;0.32;;;11.30;99.90;;;;;;5101987;28;20044;-44
2022/10/19 00:33:43;;;;;;;3.88;0.60;;;11.20;99.90;;;;;;5094178;28;20123;-43
2022/10/19 00:36:31;;;;;;;5.60;0.85;;;11.10;99.90;;;;;;5102332;28;20056;-42
2022/10/19 00:38:57;;;;;;;1.20;0.60;;;11.00;99.90;;;;;;5100835;28;20042;-42
2022/10/19 00:41:25;;;;;;;2.22;0.50;;;10.90;99.90;;;;;;5102287;28;20047;-41
2022/10/19 00:44:01;;;;;;;3.47;0.80;;;10.80;99.90;;;;;;5108298;28;20489;-44
2022/10/19 00:46:29;;;;;;;2.60;0.50;;;10.70;99.90;;;;;;5103389;28;20031;-41
2022/10/19 00:49:01;;;;;;;3.50;0.77;;;10.60;99.90;;;;;;5105989;28;20031;-43
2022/10/19 00:51:27;;;;;;;3.28;0.60;;;10.60;99.90;;;;;;5102410;28;20043;-42
2022/10/19 00:53:54;;;;;;;4.80;0.50;;;10.50;99.90;;;;;;5103643;28;20032;-45
2022/10/19 00:56:20;;;;;;;3.85;0.60;;;10.40;99.90;;;;;;5100681;28;20063;-50
2022/10/19 00:58:46;;;;;;;1.83;0.40;;;10.40;99.90;;;;;;5107742;28;20484;-40
2022/10/19 01:01:17;;;;;;;1.15;0.40;;;10.30;99.90;;;;;;5103821;28;20106;-43
2022/10/19 01:03:44;;;;;;;4.25;0.82;;;10.30;99.90;;;;;;5103576;28;20051;-46
2022/10/19 01:06:12;;;;;;;4.57;0.60;;;10.20;99.90;;;;;;5105381;28;20036;-44
2022/10/19 01:08:38;;;;;;;8.60;0.50;;;10.20;99.90;;;;;;5082893;28;20052;-41
2022/10/19 01:11:29;;;;;;;2.05;0.50;;;10.10;99.90;;;;;;5101958;28;20459;-41
2022/10/19 01:14:32;;;;;;;3.28;0.50;;;10.10;99.90;;;;;;5105863;28;20471;-45
2022/10/19 01:17:19;;;;;;;2.40;0.40;;;10.10;99.90;;;;;;5098248;28;20417;-41
2022/10/19 01:19:50;;;;;;;2.63;0.50;;;10.00;99.90;;;;;;5104458;28;20059;-43
2022/10/19 01:22:25;;;;;;;2.08;0.55;;;10.00;99.90;;;;;;5104256;28;20039;-42
2022/10/19 01:24:59;;;;;;;1.27;0.38;;;10.00;99.90;;;;;;5099960;28;20408;-42
2022/10/19 01:27:45;;;;;;;3.10;0.60;;;10.00;99.90;;;;;;5097143;28;20100;-43
2022/10/19 01:30:22;;;;;;;4.18;0.60;;;10.00;99.90;;;;;;5103085;28;20048;-46
2022/10/19 01:33:02;;;;;;;3.05;0.50;;;10.10;99.90;;;;;;5102911;28;20884;-43
2022/10/19 01:35:39;;;;;;;1.95;0.50;;;10.10;99.90;;;;;;5102528;28;20036;-44
2022/10/19 01:38:29;;;;;;;2.75;0.82;;;10.10;99.90;;;;;;5103946;28;20040;-42
2022/10/19 01:41:05;;;;;;;3.70;0.52;;;10.10;99.90;;;;;;5098321;28;20039;-42
2022/10/19 01:43:30;;;;;;;2.35;0.60;;;10.10;99.90;;;;;;5094312;28;20044;-43
2022/10/19 01:46:08;;;;;;;4.38;1.00;;;10.10;99.90;;;;;;5105991;28;20043;-44
2022/10/19 01:48:40;;;;;;;3.90;0.88;;;10.10;99.90;;;;;;5098490;28;20107;-50
2022/10/19 01:51:16;;;;;;;4.03;0.80;;;10.10;99.90;;;;;;5095646;28;20075;-44
2022/10/19 01:53:48;;;;;;;4.32;0.88;;;10.10;99.90;;;;;;5103380;28;20043;-42
2022/10/19 01:56:18;;;;;;;9.53;0.87;;;10.10;99.90;;;;;;5102981;28;20031;-43
2022/10/19 01:58:45;;;;;;;3.08;0.80;;;10.10;99.90;;;;;;5100846;28;20055;-44
2022/10/19 02:01:13;;;;;;;2.05;0.60;;;10.10;99.90;;;;;;5102892;28;20200;-41
2022/10/19 02:03:39;;;;;;;1.67;0.70;;;10.10;99.90;;;;;;5095438;28;20095;-43
2022/10/19 02:06:08;;;;;;;2.83;0.77;;;10.10;99.90;;;;;;5101902;28;20042;-44
2022/10/19 02:08:39;;;;;;;3.95;0.88;;;10.00;99.90;;;;;;5098283;28;20043;-45
2022/10/19 02:11:05;;;;;;;3.25;0.85;;;10.00;99.90;;;;;;5101626;28;20404;-41
2022/10/19 02:13:31;;;;;;;5.28;1.70;;;10.00;99.90;;;;;;5100307;28;20039;-43
2022/10/19 02:16:00;;;;;;;3.53;0.80;;;10.00;99.90;;;;;;5100348;28;20434;-42
2022/10/19 02:18:31;;;;;;;2.97;0.55;;;10.00;99.90;;;;;;5099452;28;20028;-42
2022/10/19 02:20:59;;;;;;;3.92;1.13;;;10.00;99.90;;;;;;5098363;28;20043;-44
2022/10/19 02:23:26;;;;;;;3.22;0.95;;;10.00;99.90;;;;;;5095332;28;20493;-41
2022/10/19 02:25:53;;;;;;;6.45;1.00;;;9.90;99.90;;;;;;5099482;28;20123;-43
2022/10/19 02:28:19;;;;;;;1.52;0.70;;;9.90;99.90;;;;;;5102488;28;20090;-42
2022/10/19 02:30:45;;;;;;;5.82;0.70;;;9.90;99.90;;;;;;5100295;28;20043;-42
2022/10/19 02:33:11;;;;;;;4.75;1.10;;;9.90;99.90;;;;;;5103452;28;20076;-42
2022/10/19 02:35:37;;;;;;;5.45;0.77;;;9.90;99.90;;;;;;5085575;28;20127;-39
2022/10/19 02:38:06;;;;;;;2.38;0.80;;;9.90;99.90;;;;;;5100438;28;20131;-55
2022/10/19 02:40:36;;;;;;;2.90;0.90;;;9.90;99.90;;;;;;5099406;28;20035;-40
2022/10/19 02:43:11;;;;;;;5.25;1.20;;;9.90;99.90;;;;;;5095196;28;20043;-44
2022/10/19 02:46:04;;;;;;;3.17;1.00;;;10.00;99.90;;;;;;5104382;28;20615;-42
2022/10/19 02:48:32;;;;;;;3.03;1.23;;;10.00;99.90;;;;;;5098355;28;20082;-47
2022/10/19 02:50:58;;;;;;;5.68;0.93;;;10.00;99.90;;;;;;5098238;28;20040;-41
2022/10/19 02:53:24;;;;;;;3.38;0.90;;;10.00;99.90;;;;;;5102426;28;20042;-42
2022/10/19 02:55:50;;;;;;;3.00;0.85;;;10.00;99.90;;;;;;5097266;28;20041;-40
2022/10/19 02:58:16;;;;;;;4.25;1.00;;;10.00;99.90;;;;;;5107108;28;20071;-42
2022/10/19 03:00:42;;;;;;;2.25;0.90;;;10.00;99.90;;;;;;5099061;28;20540;-41
2022/10/19 03:03:09;;;;;;;4.80;1.00;;;10.00;99.90;;;;;;5102543;28;20042;-42
2022/10/19 03:05:34;;;;;;;5.05;0.80;;;10.10;99.90;;;;;;5102970;28;21310;-42
2022/10/19 03:08:00;;;;;;;3.03;0.90;;;10.10;99.90;;;;;;5099053;28;20274;-43
2022/10/19 03:10:25;;;;;;;1.67;0.70;;;10.00;99.90;;;;;;5107221;28;20576;-43
2022/10/19 03:12:51;;;;;;;1.75;0.63;;;10.00;99.90;;;;;;5101686;28;20070;-43
2022/10/19 03:15:17;;;;;;;2.15;0.73;;;10.00;99.90;;;;;;5094782;28;20115;-41
2022/10/19 03:17:43;;;;;;;3.20;0.68;;;10.00;99.90;;;;;;5100245;28;20165;-41
2022/10/19 03:20:10;;;;;;;4.03;0.60;;;9.90;99.90;;;;;;5094330;28;20539;-41
2022/10/19 03:22:36;;;;;;;3.58;1.08;;;9.90;99.90;;;;;;5097535;28;20136;-42
2022/10/19 03:25:02;;;;;;;2.38;0.90;;;9.90;99.90;;;;;;5081583;28;20396;-42
2022/10/19 03:27:27;;;;;;;3.78;0.85;;;9.90;99.90;;;;;;5101733;28;20521;-45
2022/10/19 03:29:53;;;;;;;2.10;0.90;;;9.90;99.90;;;;;;5100946;28;20039;-42
2022/10/19 03:32:19;;;;;;;3.28;0.73;;;9.90;99.90;;;;;;5096201;28;20074;-41
2022/10/19 03:34:44;;;;;;;3.70;0.75;;;9.90;99.90;;;;;;5103653;28;20037;-48
2022/10/19 03:37:12;;;;;;;5.80;0.80;;;9.90;99.90;;;;;;5102004;28;20488;-39
2022/10/19 03:39:37;;;;;;;3.15;0.88;;;9.90;99.90;;;;;;5097385;28;20043;-41
2022/10/19 03:42:03;;;;;;;2.58;0.82;;;9.90;99.90;;;;;;5094965;28;20035;-42
2022/10/19 03:44:29;;;;;;;1.67;0.60;;;9.90;99.90;;;;;;5100350;28;20039;-43
2022/10/19 03:46:55;;;;;;;2.83;0.80;;;10.00;99.90;;;;;;5097036;28;20067;-44
2022/10/19 03:49:20;;;;;;;3.05;0.82;;;10.00;99.90;;;;;;5102859;28;20042;-44
2022/10/19 03:51:46;;;;;;;5.50;1.05;;;10.00;99.90;;;;;;5099506;28;20086;-44
2022/10/19 03:54:14;;;;;;;2.17;0.80;;;10.00;99.90;;;;;;5104092;28;20469;-43
2022/10/19 03:56:41;;;;;;;5.10;1.08;;;10.10;99.90;;;;;;5101640;28;20040;-40
2022/10/19 03:59:07;;;;;;;3.08;0.90;;;10.10;99.90;;;;;;5105516;28;20392;-44
2022/10/19 04:01:38;;;;;;;4.65;0.88;;;10.00;99.90;;;;;;5100127;28;20489;-42
2022/10/19 04:04:08;;;;;;;5.53;0.95;;;10.00;99.90;;;;;;5106638;28;20637;-42
2022/10/19 04:06:37;;;;;;;3.00;0.70;;;10.10;99.90;;;;;;5103070;28;20061;-44
2022/10/19 04:09:04;;;;;;;4.90;1.00;;;10.10;99.90;;;;;;5105384;28;20431;-44
2022/10/19 04:11:32;;;;;;;3.25;0.65;;;10.10;99.90;;;;;;5099675;28;20039;-42
2022/10/19 04:13:58;;;;;;;3.63;0.93;;;10.10;99.90;;;;;;5106484;28;20126;-45
2022/10/19 04:16:26;;;;;;;3.63;0.70;;;10.10;99.90;;;;;;5107554;28;20061;-50
2022/10/19 04:18:52;;;;;;;3.10;0.60;;;10.10;99.90;;;;;;5104043;28;20032;-42
2022/10/19 04:21:33;;;;;;;6.82;0.70;;;10.10;99.90;;;;;;5104804;28;20393;-43
2022/10/19 04:24:08;;;;;;;2.60;0.68;;;10.10;99.90;;;;;;5102396;28;20044;-41
2022/10/19 04:26:38;;;;;;;4.18;0.50;;;10.10;99.90;;;;;;5104149;28;20043;-40
2022/10/19 04:29:04;;;;;;;3.58;0.68;;;10.10;99.90;;;;;;5102144;28;20429;-41
2022/10/19 04:31:30;;;;;;;2.28;0.40;;;10.10;99.90;;;;;;5100382;28;20054;-43
2022/10/19 04:33:56;;;;;;;2.75;0.40;;;10.10;99.90;;;;;;5102661;28;20031;-43
2022/10/19 04:36:22;;;;;;;1.30;0.40;;;10.00;99.90;;;;;;5102907;28;20059;-39
2022/10/19 04:38:48;;;;;;;4.07;0.73;;;10.00;99.90;;;;;;5103186;28;20788;-43
2022/10/19 04:41:16;;;;;;;1.55;0.40;;;10.00;99.90;;;;;;5095872;28;20039;-41
2022/10/19 04:43:44;;;;;;;4.28;0.52;;;9.90;99.90;;;;;;5106086;28;20093;-42
2022/10/19 04:46:18;;;;;;;5.97;1.33;;;9.90;99.90;;;;;;5104270;28;20048;-42
2022/10/19 04:48:44;;;;;;;4.55;0.90;;;9.80;99.90;;;;;;5102688;28;20114;-43
2022/10/19 04:51:10;;;;;;;1.52;0.47;;;9.70;99.90;;;;;;5100412;28;20046;-42
2022/10/19 04:53:38;;;;;;;3.45;0.40;;;9.70;99.90;;;;;;5102674;28;20035;-44
2022/10/19 04:56:10;;;;;;;3.50;0.68;;;9.70;99.90;;;;;;5103326;28;20127;-44
2022/10/19 04:58:36;;;;;;;4.82;0.77;;;9.60;99.90;;;;;;5107129;28;20038;-47
2022/10/19 05:01:09;;;;;;;3.75;0.40;;;9.60;99.90;;;;;;5101223;28;20035;-43
2022/10/19 05:03:36;;;;;;;3.83;0.55;;;9.60;99.90;;;;;;5106687;28;20047;-41
2022/10/19 05:06:02;;;;;;;2.80;0.45;;;9.70;99.90;;;;;;5105961;28;20047;-42
2022/10/19 05:08:28;;;;;;;1.63;0.90;;;9.70;99.90;;;;;;5103912;28;20047;-41
2022/10/19 05:10:53;;;;;;;1.90;0.40;;;9.70;99.90;;;;;;5097760;28;20032;-43
2022/10/19 05:13:19;;;;;;;4.18;0.60;;;9.70;99.90;;;;;;5097962;28;20041;-40
2022/10/19 05:15:54;;;;;;;4.40;0.85;;;9.70;99.90;;;;;;5105439;28;20040;-44
2022/10/19 05:18:20;;;;;;;3.03;0.75;;;9.70;99.90;;;;;;5103788;28;20042;-43
2022/10/19 05:20:46;;;;;;;5.28;0.70;;;9.70;99.90;;;;;;5103272;28;20065;-43
2022/10/19 05:23:11;;;;;;;2.90;0.57;;;9.70;99.90;;;;;;5100384;28;20040;-42
2022/10/19 05:25:37;;;;;;;3.38;1.02;;;9.80;99.90;;;;;;5106119;28;20404;-47
2022/10/19 05:28:03;;;;;;;4.68;0.60;;;9.80;99.90;;;;;;5099656;28;20519;-41
2022/10/19 05:30:28;;;;;;;4.63;0.57;;;9.80;99.90;;;;;;5100205;28;20040;-42
2022/10/19 05:32:54;;;;;;;4.55;0.65;;;9.80;99.90;;;;;;5105574;28;20076;-45
2022/10/19 05:35:20;;;;;;;3.25;0.50;;;9.80;99.90;;;;;;5097182;28;20036;-40
2022/10/19 05:37:46;;;;;;;1.42;0.40;;;9.80;99.90;;;;;;5090447;28;20039;-44
2022/10/19 05:40:12;;;;;;;3.85;0.70;;;9.80;99.90;;;;;;5102265;28;20036;-42
2022/10/19 05:42:37;;;;;;;4.88;0.55;;;9.80;99.90;;;;;;5103911;28;20039;-39
2022/10/19 05:45:04;;;;;;;1.95;0.50;;;9.80;99.90;;;;;;5101562;28;20032;-42
2022/10/19 05:47:30;;;;;;;2.45;0.60;;;9.80;99.90;;;;;;5100670;28;20040;-41
2022/10/19 05:49:55;;;;;;;2.42;0.77;;;9.80;99.90;;;;;;5105169;28;20035;-43
2022/10/19 05:52:21;;;;;;;1.65;0.82;;;9.80;99.90;;;;;;5101354;28;20477;-43
2022/10/19 05:54:47;;;;;;;8.48;0.80;;;9.90;99.90;;;;;;5103613;28;20051;-44
2022/10/19 05:57:12;;;;;;;4.45;1.13;;;9.90;99.90;;;;;;5100142;28;20031;-45
2022/10/19 05:59:38;;;;;;;5.35;0.70;;;9.90;99.90;;;;;;5097815;28;20040;-40
2022/10/19 06:02:04;;;;;;;4.05;0.85;;;9.90;99.90;;;;;;5100842;28;20500;-43
2022/10/19 06:04:29;;;;;;;4.63;0.50;;;9.90;99.90;;;;;;5105198;28;20045;-42
2022/10/19 06:06:55;;;;;;;2.90;0.50;;;9.90;99.90;;;;;;5101633;28;20055;-41
2022/10/19 06:09:21;;;;;;;4.78;0.98;;;9.90;99.90;;;;;;5100249;28;20040;-42
2022/10/19 06:11:47;;;;;;;2.30;0.57;;;9.90;99.90;;;;;;5102717;28;20047;-45
2022/10/19 06:14:14;;;;;;;3.65;0.57;;;9.90;99.90;;;;;;5100399;28;20514;-50
2022/10/19 06:16:41;;;;;;;7.38;0.88;;;9.90;99.90;;;;;;5100259;28;20126;-42
2022/10/19 06:19:06;;;;;;;8.27;0.90;;;9.90;99.90;;;;;;5095132;28;20054;-42
2022/10/19 06:21:33;;;;;;;5.25;0.45;;;9.90;99.90;;;;;;5105805;28;20039;-41
2022/10/19 06:24:04;;;;;;;2.53;0.50;;;10.00;99.90;;;;;;5103255;28;20055;-44
2022/10/19 06:26:32;;;;;;;2.45;0.60;;;10.00;99.90;;;;;;5098887;28;20050;-44
2022/10/19 06:28:59;;;;;;;2.20;0.38;;;10.00;99.90;;;;;;5098477;28;20147;-49
2022/10/19 06:31:30;;;;;;;3.15;0.80;;;10.10;99.90;;;;;;5098151;28;20035;-44
2022/10/19 06:33:56;;;;;;;7.20;0.73;;;10.10;99.90;;;;;;5097909;28;20039;-41
2022/10/19 06:36:24;;;;;;;2.67;0.50;;;10.10;99.90;;;;;;5099149;28;20046;-45
2022/10/19 06:38:50;;;;;;;4.28;0.98;;;10.10;99.90;;;;;;5100821;28;20035;-41
2022/10/19 06:41:16;;;;;;;4.68;0.70;;;10.10;99.90;;;;;;5103801;28;20416;-41
2022/10/19 06:43:42;;;;;;;11.43;1.00;;;10.10;99.90;;;;;;5096910;28;20046;-46
2022/10/19 06:46:19;;;;;;;6.28;0.95;;;10.20;99.90;;;;;;5106338;28;20054;-42
2022/10/19 06:48:49;;;;;;;5.18;0.90;;;10.20;99.90;;;;;;5099684;28;20057;-43
2022/10/19 06:51:15;;;;;;;5.13;0.60;;;10.30;99.90;;;;;;5098064;28;20040;-43
2022/10/19 06:53:41;;;;;;;4.15;0.70;;;10.30;99.90;;;;;;5102036;28;20055;-41
2022/10/19 06:56:07;;;;;;;4.82;0.70;;;10.30;99.90;;;;;;5106729;28;20035;-43
2022/10/19 06:58:36;;;;;;;3.20;0.73;;;10.40;99.90;;;;;;5098427;28;20040;-43
2022/10/19 07:01:03;;;;;;;3.15;0.70;;;10.40;99.90;;;;;;5096474;28;20062;-44
2022/10/19 07:03:29;;;;;;;6.80;0.80;;;10.40;99.90;;;;;;5100024;28;20040;-42
2022/10/19 07:06:00;;;;;;;2.92;0.47;;;10.50;99.90;;;;;;5100799;28;20115;-44
2022/10/19 07:08:28;;;;;;;4.70;0.60;;;10.50;99.90;;;;;;5100333;28;20088;-41
2022/10/19 07:10:57;;;;;;;9.05;0.80;;;10.60;99.90;;;;;;5098191;28;20566;-44
2022/10/19 07:13:23;;;;;;;5.68;0.98;;;10.60;99.90;;;;;;5104543;28;20041;-42
2022/10/19 07:15:55;;;;;;;4.80;0.77;;;10.70;99.90;;;;;;5099704;28;20046;-41
2022/10/19 07:18:20;;;;;;;4.05;0.60;;;10.70;99.90;;;;;;5085381;28;20035;-40
2022/10/19 07:20:56;;;;;;;5.32;0.68;;;10.80;99.90;;;;;;5102517;28;20054;-44
2022/10/19 07:23:22;;;;;;;4.15;0.63;;;10.80;99.90;;;;;;5080679;28;20039;-41
2022/10/19 07:25:47;;;;;;;6.13;1.48;;;10.90;99.90;;;;;;5102306;28;20043;-45
2022/10/19 07:28:13;;;;;;;3.20;0.70;;;10.90;99.90;;;;;;5099081;28;20059;-43
2022/10/19 07:30:39;;;;;;;2.92;0.65;;;10.90;99.90;;;;;;5098572;28;20040;-42
2022/10/19 07:33:05;;;;;;;7.10;0.40;;;11.00;99.90;;;;;;5101869;28;20484;-43
2022/10/19 07:35:31;;;;;;;4.82;0.80;;;11.00;99.90;;;;;;5094123;28;20700;-43
2022/10/19 07:37:56;;;;;;;8.45;1.05;;;11.00;99.90;;;;;;5096036;28;20031;-41
2022/10/19 07:40:22;;;;;;;3.95;0.57;;;11.10;99.90;;;;;;5060822;28;20056;-41
2022/10/19 07:42:48;;;;;;;5.25;0.73;;;11.10;99.90;;;;;;5094075;28;20031;-40
2022/10/19 07:45:13;;;;;;;7.18;0.80;;;11.10;99.90;;;;;;5093505;28;20040;-41
2022/10/19 07:47:39;;;;;;;8.65;1.20;;;11.20;99.90;;;;;;5096326;28;20046;-42
2022/10/19 07:50:05;;;;;;;6.72;0.77;;;11.20;99.90;;;;;;5098538;28;20027;-44
2022/10/19 07:52:31;;;;;;;5.45;0.82;;;11.30;99.90;;;;;;5096727;28;20032;-43
2022/10/19 07:54:59;;;;;;;6.43;0.90;;;11.30;99.90;;;;;;5104451;28;20039;-43
2022/10/19 07:57:25;;;;;;;4.40;0.50;;;11.30;99.90;;;;;;5103907;28;20506;-48
2022/10/19 07:59:51;;;;;;;4.22;0.50;;;11.40;99.90;;;;;;5100747;28;20109;-43
2022/10/19 08:02:18;;;;;;;4.28;0.75;;;11.50;99.90;;;;;;5101865;28;20490;-47
2022/10/19 08:04:44;;;;;;;6.90;0.90;;;11.50;99.90;;;;;;5095090;28;20039;-44
2022/10/19 08:07:10;;;;;;;8.73;1.10;;;11.60;99.90;;;;;;5099857;28;20043;-45
2022/10/19 08:09:36;;;;;;;6.68;0.68;;;11.60;99.90;;;;;;5099582;28;20072;-43
2022/10/19 08:12:03;;;;;;;6.95;1.38;;;11.70;99.90;;;;;;5083822;28;20093;-42
2022/10/19 08:14:29;;;;;;;6.57;1.27;;;11.70;99.90;;;;;;5106311;28;20043;-43
2022/10/19 08:16:55;;;;;;;10.02;1.55;;;11.70;99.90;;;;;;5086540;28;20446;-43
2022/10/19 08:19:21;;;;;;;7.20;0.80;;;11.80;99.90;;;;;;5099178;28;20028;-42
2022/10/19 08:21:47;;;;;;;5.97;0.63;;;11.80;99.90;;;;;;5101277;28;20055;-44
2022/10/19 08:24:15;;;;;;;5.40;0.50;;;11.80;99.90;;;;;;5097180;28;20039;-42
2022/10/19 08:26:41;;;;;;;6.75;0.60;;;11.90;99.90;;;;;;5102397;28;20061;-41
2022/10/19 08:29:11;;;;;;;3.95;0.70;;;11.90;99.90;;;;;;5100412;28;20070;-41
2022/10/19 08:31:37;;;;;;;6.05;0.52;;;12.00;99.90;;;;;;5098954;28;20097;-42
2022/10/19 08:34:03;;;;;;;9.23;1.63;;;12.00;99.90;;;;;;5103694;28;20046;-42
2022/10/19 08:36:30;;;;;;;5.22;0.50;;;12.00;99.90;;;;;;5103349;28;20396;-43
2022/10/19 08:38:56;;;;;;;8.60;0.98;;;12.00;99.90;;;;;;5097013;28;20068;-41
2022/10/19 08:41:32;;;;;;;7.55;0.65;;;12.00;99.90;;;;;;5104696;28;20045;-41
2022/10/19 08:44:19;;;;;;;7.95;0.52;;;12.10;99.90;;;;;;5105449;28;20131;-44
2022/10/19 08:47:12;;;;;;;4.13;0.50;;;12.10;99.90;;;;;;5108374;28;20132;-42
2022/10/19 08:49:39;;;;;;;3.78;0.68;;;12.20;99.90;;;;;;5106197;28;20039;-43
2022/10/19 08:52:27;;;;;;;6.82;0.95;;;12.30;99.90;;;;;;5103163;28;20496;-42
2022/10/19 08:55:03;;;;;;;3.70;0.90;;;12.30;99.90;;;;;;5107317;28;20036;-43
2022/10/19 08:57:58;;;;;;;7.63;0.50;;;12.40;99.90;;;;;;5104855;28;20040;-43
2022/10/19 09:00:51;;;;;;;6.85;1.02;;;12.40;99.90;;;;;;5105342;28;20043;-43
2022/10/19 09:03:41;;;;;;;3.22;0.90;;;12.50;99.90;;;;;;5102399;28;20149;-46
2022/10/19 09:06:21;;;;;;;8.50;0.65;;;12.50;99.90;;;;;;5111549;28;20093;-41
2022/10/19 09:08:49;;;;;;;4.47;0.60;;;12.60;99.90;;;;;;5107643;28;20055;-41
2022/10/19 09:11:20;;;;;;;13.77;1.52;;;12.70;99.90;;;;;;5105321;28;20130;-50
2022/10/19 09:13:48;;;;;;;6.60;0.50;;;12.70;99.90;;;;;;5103630;28;20039;-41
2022/10/19 09:16:17;;;;;;;5.30;0.52;;;12.70;99.90;;;;;;5083953;28;20036;-39
2022/10/19 09:18:45;;;;;;;6.03;0.80;;;12.80;99.90;;;;;;5084261;28;20046;-40
2022/10/19 09:21:19;;;;;;;8.45;1.27;;;12.70;99.90;;;;;;5097706;28;20040;-46
2022/10/19 09:24:01;;;;;;;7.80;0.80;;;12.80;99.90;;;;;;5106596;28;20480;-42
2022/10/19 09:26:30;;;;;;;7.17;0.70;;;12.80;99.90;;;;;;5099560;28;20054;-43
2022/10/19 09:29:23;;;;;;;8.85;0.60;;;12.90;99.90;;;;;;5105123;28;20302;-45
2022/10/19 09:31:53;;;;;;;;;;;12.90;99.90;;;;;;5101546;22;20067;-92
2022/10/19 09:34:25;;;;;;;12.20;0.82;;;13.00;99.10;;;;;;5014402;28;19921;-92
2022/10/19 09:36:56;;;;;;;7.85;0.73;;;13.10;99.90;;;;;;5008506;28;20138;-91
2022/10/19 09:39:22;;;;;;;4.28;0.50;;;13.20;98.90;;;;;;5010204;28;20075;-92
2022/10/19 09:41:54;;;;;;;10.15;1.27;;;13.20;98.90;;;;;;5034447;22;20124;-39
2022/10/19 09:44:21;;;;;;;4.25;0.38;;;13.30;98.10;;;;;;4988804;28;20055;-39
2022/10/19 09:46:51;;;;;;;4.88;0.60;;;13.30;97.60;;;;;;4988387;28;20101;-40
2022/10/19 09:49:42;;;;;;;5.47;0.55;;;13.20;97.10;;;;;;4987057;28;20073;-39
2022/10/19 09:52:38;;;;;;;9.00;0.60;;;13.30;96.20;;;;;;4986152;28;20400;-39
2022/10/19 09:55:12;;;;;;;5.70;0.40;;;13.30;96.60;;;;;;4987541;28;20085;-50
2022/10/19 09:57:45;;;;;;;7.28;0.77;;;13.30;96.50;;;;;;4985605;28;20031;-40
2022/10/19 10:00:23;;;;;;;7.13;1.10;;;13.30;96.20;;;;;;4989785;28;20113;-41
2022/10/19 10:02:54;;;;;;;2.60;0.43;;;13.30;96.20;;;;;;4988834;28;20046;-40
2022/10/19 10:05:33;;;;;;;7.40;1.02;;;13.40;95.90;;;;;;4988673;28;20121;-40
2022/10/19 10:07:59;;;;;;;5.40;0.70;;;13.50;95.50;;;;;;4982136;28;20050;-39
2022/10/19 10:10:37;;;;;;;7.15;1.30;;;13.60;95.40;;;;;;4986720;28;20050;-40
2022/10/19 10:13:03;;;;;;;5.78;0.70;;;13.70;94.70;;;;;;4985710;28;20039;-39
2022/10/19 10:15:41;;;;;;;3.70;0.82;;;13.70;95.10;;;;;;4986389;28;20566;-40
2022/10/19 10:18:16;;;;;;;5.57;0.60;;;13.60;94.30;;;;;;4987725;28;20069;-40
2022/10/19 10:21:01;;;;;;;5.65;0.60;;;13.70;95.00;;;;;;4987146;28;20657;-39
2022/10/19 10:23:32;;;;;;;3.83;0.55;;;13.80;94.30;;;;;;4988616;28;20036;-40
2022/10/19 10:25:59;;;;;;;6.97;0.73;;;13.90;94.70;;;;;;4986812;28;20042;-39
2022/10/19 10:28:27;;;;;;;10.07;1.38;;;13.90;94.60;;;;;;4982821;28;20066;-39
2022/10/19 10:30:59;;;;;;;7.60;1.15;;;14.00;94.20;;;;;;4987067;28;20164;-40
2022/10/19 10:33:27;;;;;;;4.10;1.05;;;14.00;94.40;;;;;;4986991;28;20054;-40
2022/10/19 10:36:02;;;;;;;5.97;0.77;;;14.10;94.10;;;;;;4982081;28;20122;-39
2022/10/19 10:38:35;;;;;;;6.45;0.50;;;14.10;93.80;;;;;;4986773;28;20093;-39
2022/10/19 10:41:22;;;;;;;4.70;0.60;;;14.10;93.70;;;;;;4983936;28;20106;-39
2022/10/19 10:43:58;;;;;;;7.03;0.85;;;14.20;93.60;;;;;;4986381;28;20061;-39
2022/10/19 10:46:27;;;;;;;7.57;0.98;;;14.40;93.50;;;;;;4979807;28;20054;-39
2022/10/19 10:49:00;;;;;;;8.18;0.73;;;14.50;93.40;;;;;;4981788;28;20116;-39
2022/10/19 10:51:33;;;;;;;;;;;14.60;92.50;;;;;;4986970;28;20388;-40
2022/10/19 10:54:19;;;;;;;6.53;0.60;;;14.70;91.50;;;;;;4980551;28;20288;-39
2022/10/19 10:57:01;;;;;;;6.95;0.88;;;14.70;91.90;;;;;;4985019;28;20479;-39
2022/10/19 10:59:31;;;;;;;5.85;0.75;;;14.70;91.80;;;;;;4987359;28;20034;-39
2022/10/19 11:02:16;;;;;;;5.35;0.50;;;14.80;92.20;;;;;;4987307;28;20038;-40
2022/10/19 11:04:49;;;;;;;3.85;0.60;;;14.80;91.80;;;;;;4989396;28;20510;-40
2022/10/19 11:07:25;;;;;;;5.10;0.70;;;14.80;90.90;;;;;;4986219;28;20085;-40
2022/10/19 11:09:57;;;;;;;5.97;0.52;;;14.80;90.90;;;;;;4985916;28;20459;-40
2022/10/19 11:12:37;;;;;;;8.18;1.23;;;14.80;90.90;;;;;;4985794;28;20073;-39
2022/10/19 11:15:36;;;;;;;5.38;0.90;;;14.80;90.20;;;;;;4982934;28;20043;-39
2022/10/19 11:18:33;;;;;;;4.82;0.65;;;14.80;90.20;;;;;;4969281;28;20137;-41
2022/10/19 11:21:14;;;;;;;4.97;0.60;;;14.90;90.00;;;;;;4980704;28;20054;-41
2022/10/19 11:23:50;;;;;;;8.18;1.00;;;15.00;88.80;;;;;;4983851;28;20073;-54
2022/10/19 11:26:32;;;;;;;5.97;0.65;;;15.10;89.80;;;;;;4983529;28;20522;-41
2022/10/19 11:29:10;;;;;;;7.38;0.77;;;15.20;88.30;;;;;;4984074;28;20630;-40
2022/10/19 11:31:46;;;;;;;2.90;0.40;;;15.20;86.90;;;;;;4986564;28;20519;-40
2022/10/19 11:34:48;;;;;;;4.10;0.60;;;15.40;86.10;;;;;;4983875;28;20035;-39
2022/10/19 11:37:23;;;;;;;6.68;0.52;;;15.80;85.60;;;;;;4988331;28;20088;-39
2022/10/19 11:39:59;;;;;;;10.25;1.02;;;16.30;83.80;;;;;;4987256;28;20050;-39
2022/10/19 11:42:52;;;;;;;6.55;0.70;;;16.80;80.40;;;;;;4983283;28;20058;-39
2022/10/19 11:45:38;;;;;;;7.30;0.60;;;17.10;78.50;;;;;;4983491;28;20054;-40
2022/10/19 11:48:17;;;;;;;5.18;0.50;;;17.30;76.20;;;;;;4982341;28;20039;-42
2022/10/19 11:50:57;;;;;;;3.95;0.90;;;17.60;75.90;;;;;;4982107;28;20065;-39
2022/10/19 11:53:54;;;;;;;5.32;0.60;;;17.70;73.80;;;;;;4986744;28;20043;-41
2022/10/19 11:56:27;;;;;;;4.68;0.57;;;17.90;72.60;;;;;;4982581;28;20537;-40
2022/10/19 11:59:16;;;;;;;5.95;0.73;;;18.10;72.40;;;;;;4980937;28;20038;-39
2022/10/19 12:02:09;;;;;;;6.32;0.68;;;18.20;71.40;;;;;;4982948;28;20054;-39
2022/10/19 12:04:48;;;;;;;7.57;0.80;;;18.20;67.50;;;;;;4984817;28;20034;-39
2022/10/19 12:07:54;;;;;;;10.63;0.80;;;18.30;69.30;;;;;;4984578;28;20125;-39
2022/10/19 12:10:58;;;;;;;6.22;0.98;;;18.40;66.30;;;;;;4983952;28;20068;-40
2022/10/19 12:13:59;;;;;;;6.38;0.82;;;18.40;65.70;;;;;;4896228;29;20502;-44
2022/10/19 12:16:37;;;;;;;3.90;0.60;;;18.40;64.80;;;;;;4929471;29;20056;-40
2022/10/19 12:19:05;;;;;;;6.88;0.80;;;18.40;67.80;;;;;;4975085;28;20530;-40
2022/10/19 12:21:41;;;;;;;8.43;0.77;;;18.40;68.20;;;;;;4989280;28;20045;-40
2022/10/19 12:24:23;;;;;;;6.38;0.85;;;18.50;67.50;;;;;;4989596;28;20109;-41
2022/10/19 12:26:52;;;;;;;3.60;0.63;;;18.40;66.60;;;;;;4987810;28;20068;-41
2022/10/19 12:29:28;;;;;;;6.05;1.00;;;18.40;66.60;;;;;;4986130;28;20056;-42
2022/10/19 12:31:56;;;;;;;6.93;0.75;;;18.20;66.00;;;;;;4986420;28;20522;-40
2022/10/19 12:34:40;;;;;;;6.78;0.80;;;17.90;66.80;;;;;;4992749;28;20392;-40
2022/10/19 12:37:37;;;;;;;3.00;0.70;;;17.80;67.70;;;;;;4987486;28;20038;-41
2022/10/19 12:40:26;;;;;;;5.43;1.10;;;17.80;67.40;;;;;;4986278;28;20110;-40
2022/10/19 12:43:15;;;;;;;7.38;2.03;;;17.70;67.30;;;;;;4985942;28;20140;-41
2022/10/19 12:45:59;;;;;;;5.43;1.10;;;18.00;67.30;;;;;;4990792;28;20566;-40
2022/10/19 12:48:24;;;;;;;4.28;1.13;;;18.50;65.90;;;;;;4982923;28;20049;-39
2022/10/19 12:50:52;;;;;;;8.52;1.27;;;18.70;65.90;;;;;;4987723;28;20034;-40
2022/10/19 12:53:21;;;;;;;5.43;0.90;;;18.90;64.80;;;;;;4984027;28;20046;-41
2022/10/19 12:56:17;;;;;;;7.95;1.05;;;19.10;63.90;;;;;;4978944;28;20115;-38
2022/10/19 12:58:42;;;;;;;6.20;1.08;;;19.30;61.70;;;;;;4984942;28;20046;-40
2022/10/19 13:01:19;;;;;;;4.85;0.85;;;19.30;62.50;;;;;;4987059;28;20506;-42
2022/10/19 13:03:46;;;;;;;7.50;0.90;;;19.20;62.20;;;;;;4988414;28;20507;-43
2022/10/19 13:06:24;;;;;;;5.95;1.23;;;19.30;61.90;;;;;;4991383;28;20057;-40
2022/10/19 13:08:52;;;;;;;7.60;1.40;;;19.60;60.60;;;;;;4986370;28;20115;-39
2022/10/19 13:11:19;;;;;;;8.75;1.15;;;19.90;60.70;;;;;;4983717;28;20035;-40